Time;durP1;ratioP1;P1;durP2;ratioP2;P2;SDS_P1;SDS_P2;PMS_P1;PMS_P2;Temp;Humidity;BMP_temperature;BMP_pressure;BME280_temperature;BME280_humidity;BME280_pressure;Samples;Min_cycle;Max_cycle;Signal;HPM_P1;HPM_P2
2023/11/11 00:00:11;;;;;;;3.50;1.45;;;8.60;99.90;;;8.99;75.03;98801.13;5093187;28;20037;-82
2023/11/11 00:02:40;;;;;;;3.53;1.40;;;8.60;99.90;;;9.03;75.12;98798.81;5084199;28;20067;-82
2023/11/11 00:05:09;;;;;;;4.95;1.58;;;8.60;99.90;;;9.02;74.93;98803.28;5085633;28;20097;-82
2023/11/11 00:07:36;;;;;;;3.42;1.70;;;8.60;99.90;;;9.02;75.02;98799.81;5083788;28;20124;-83
2023/11/11 00:10:05;;;;;;;6.07;1.77;;;8.60;99.90;;;9.02;74.97;98803.28;5089153;28;20562;-82
2023/11/11 00:12:33;;;;;;;3.15;1.38;;;8.70;99.90;;;9.03;75.15;98804.13;5102582;28;20139;-82
2023/11/11 00:15:01;;;;;;;5.70;1.70;;;8.60;99.90;;;9.04;75.14;98800.41;5105536;28;20414;-82
2023/11/11 00:17:29;;;;;;;4.72;1.70;;;8.70;99.90;;;9.04;75.05;98803.06;5105501;28;20120;-82
2023/11/11 00:19:59;;;;;;;3.25;1.75;;;8.60;99.90;;;9.02;75.29;98803.28;5070655;28;20055;-82
2023/11/11 00:22:28;;;;;;;6.78;1.80;;;8.60;99.90;;;9.02;75.34;98805.16;5103943;28;20044;-82
2023/11/11 00:24:55;;;;;;;3.80;1.80;;;8.60;99.90;;;9.02;75.33;98811.28;5103943;28;20063;-82
2023/11/11 00:27:23;;;;;;;3.92;2.00;;;8.70;99.90;;;9.02;75.17;98811.28;5103627;28;20094;-82
2023/11/11 00:29:50;;;;;;;4.13;2.00;;;8.70;99.90;;;9.03;75.42;98817.41;5063903;28;20044;-82
2023/11/11 00:32:18;;;;;;;3.72;1.58;;;8.70;99.90;;;9.03;75.33;98806.78;5103716;28;20048;-82
2023/11/11 00:34:46;;;;;;;4.40;1.60;;;8.60;99.90;;;9.03;75.33;98817.41;5036897;28;20041;-82
2023/11/11 00:37:15;;;;;;;2.63;1.40;;;8.60;99.90;;;9.04;75.38;98816.38;5084780;28;20081;-82
2023/11/11 00:39:42;;;;;;;4.57;1.58;;;8.70;99.90;;;9.04;75.65;98821.69;5100394;28;20435;-82
2023/11/11 00:42:10;;;;;;;3.88;1.30;;;8.60;99.90;;;9.03;75.48;98825.41;5100313;28;20097;-82
2023/11/11 00:44:41;;;;;;;2.92;1.35;;;8.70;99.90;;;9.02;75.63;98831.75;5117206;28;20464;-82
2023/11/11 00:47:09;;;;;;;3.72;1.30;;;8.70;99.90;;;9.01;75.77;98838.91;5100355;28;20050;-83
2023/11/11 00:49:36;;;;;;;3.42;1.38;;;8.60;99.90;;;8.99;75.76;98834.91;5099123;28;20138;-82
2023/11/11 00:52:04;;;;;;;2.20;1.13;;;8.60;99.90;;;8.98;75.93;98843.94;5082702;28;20041;-82
2023/11/11 00:54:33;;;;;;;3.05;1.10;;;8.70;99.90;;;8.98;75.70;98849.25;5080511;28;20131;-82
2023/11/11 00:57:01;;;;;;;3.72;1.20;;;8.60;99.90;;;8.96;75.82;98853.97;5082131;28;20106;-82
2023/11/11 00:59:30;;;;;;;6.00;1.85;;;8.60;99.90;;;8.95;75.85;98855.84;5064305;28;20168;-82
2023/11/11 01:01:59;;;;;;;5.78;2.50;;;8.60;99.90;;;8.96;76.07;98860.09;5085164;28;20114;-82
2023/11/11 01:04:28;;;;;;;4.38;2.35;;;8.70;99.90;;;8.97;76.01;98859.03;5069829;28;20071;-82
2023/11/11 01:06:56;;;;;;;4.88;2.67;;;8.60;99.90;;;8.97;76.11;98863.56;5087302;28;20041;-82
2023/11/11 01:09:23;;;;;;;6.93;3.45;;;8.70;99.90;;;8.98;76.18;98870.53;5085167;28;20067;-82
2023/11/11 01:11:53;;;;;;;13.30;5.65;;;8.60;99.90;;;8.98;76.37;98855.38;5086131;28;20036;-82
2023/11/11 01:14:22;;;;;;;13.63;6.43;;;8.70;99.90;;;8.98;76.23;98857.22;5075259;28;20051;-82
2023/11/11 01:16:50;;;;;;;10.95;6.65;;;8.60;99.90;;;8.95;76.50;98869.13;5089987;28;20049;-82
2023/11/11 01:19:19;;;;;;;15.95;9.00;;;8.60;99.90;;;8.93;76.62;98862.44;5090962;28;20040;-82
2023/11/11 01:21:47;;;;;;;18.55;10.50;;;8.60;99.90;;;8.90;77.04;98865.59;5098767;28;20044;-82
2023/11/11 01:24:15;;;;;;;18.67;10.80;;;8.60;99.90;;;8.90;77.22;98866.38;5073396;28;20052;-82
2023/11/11 01:26:42;;;;;;;20.52;12.02;;;8.60;99.90;;;8.81;77.59;98875.78;5086940;28;20044;-82
2023/11/11 01:29:12;;;;;;;18.67;11.60;;;8.50;99.90;;;8.86;77.71;98875.06;5104290;28;20150;-82
2023/11/11 01:31:40;;;;;;;22.25;12.15;;;8.60;99.90;;;8.89;77.48;98869.28;5104906;28;20418;-82
2023/11/11 01:34:08;;;;;;;21.88;12.50;;;8.60;99.90;;;8.89;77.73;98874.59;5080624;28;20123;-82
2023/11/11 01:36:36;;;;;;;23.73;13.88;;;8.60;99.90;;;8.91;77.77;98878.63;5085583;28;20461;-82
2023/11/11 01:39:04;;;;;;;22.10;15.05;;;8.60;99.90;;;8.88;77.94;98884.44;5102823;28;20093;-82
2023/11/11 01:41:33;;;;;;;26.30;15.93;;;8.60;99.90;;;8.88;78.29;98891.59;5107285;28;20044;-82
2023/11/11 01:44:01;;;;;;;24.15;16.50;;;8.60;99.90;;;8.91;77.85;98885.78;5105000;28;20090;-82
2023/11/11 01:46:32;;;;;;;27.42;17.08;;;8.70;99.90;;;8.91;77.76;98891.13;5100208;28;20047;-82
2023/11/11 01:49:00;;;;;;;28.48;16.77;;;8.60;99.90;;;8.88;77.93;98894.25;5089284;28;20048;-82
2023/11/11 01:51:30;;;;;;;26.25;16.98;;;8.60;99.90;;;8.87;78.15;98892.63;5086242;28;20040;-82
2023/11/11 01:53:58;;;;;;;28.85;17.88;;;8.60;99.90;;;8.84;77.92;98899.25;5096447;28;20068;-82
2023/11/11 01:56:26;;;;;;;31.42;19.52;;;8.60;99.90;;;8.73;78.74;98906.22;5104283;28;20048;-82
2023/11/11 01:58:54;;;;;;;29.77;18.58;;;8.50;99.90;;;8.76;78.57;98903.09;5104554;28;20454;-82
2023/11/11 02:01:23;;;;;;;28.73;18.58;;;8.50;99.90;;;8.79;78.73;98899.16;5099181;28;20040;-82
2023/11/11 02:03:52;;;;;;;27.85;18.77;;;8.50;99.90;;;8.81;78.56;98906.88;5086631;28;20415;-82
2023/11/11 02:06:19;;;;;;;29.92;19.23;;;8.50;99.90;;;8.80;78.52;98905.28;5080343;28;20044;-82
2023/11/11 02:08:47;;;;;;;29.25;18.10;;;8.50;99.90;;;8.81;78.58;98907.69;5094705;28;20039;-82
2023/11/11 02:11:15;;;;;;;31.20;19.58;;;8.50;99.90;;;8.71;78.71;98910.97;5096052;28;20548;-82
2023/11/11 02:13:43;;;;;;;25.98;17.25;;;8.50;99.90;;;8.76;78.72;98915.56;5069100;28;20070;-82
2023/11/11 02:16:11;;;;;;;26.52;16.90;;;8.50;99.90;;;8.80;78.38;98918.56;5074232;28;20068;-82
2023/11/11 02:18:38;;;;;;;26.23;18.48;;;8.60;99.90;;;8.79;78.24;98919.63;5050945;28;20087;-82
2023/11/11 02:21:07;;;;;;;27.95;17.98;;;8.60;99.90;;;8.79;78.08;98924.94;5089704;28;20044;-82
2023/11/11 02:23:40;;;;;;;25.30;16.20;;;8.50;99.90;;;8.77;78.07;98933.13;5086366;28;20045;-82
2023/11/11 02:26:07;;;;;;;26.42;17.42;;;8.50;99.90;;;8.75;78.12;98935.22;5096622;28;20040;-82
2023/11/11 02:28:35;;;;;;;24.05;16.20;;;8.50;99.90;;;8.79;78.16;98935.56;5092131;28;20062;-82
2023/11/11 02:31:05;;;;;;;27.55;17.15;;;8.50;99.90;;;8.75;78.10;98932.56;5095402;28;20063;-83
2023/11/11 02:33:32;;;;;;;24.73;16.88;;;8.50;99.90;;;8.75;78.22;98943.19;5094837;28;20033;-82
2023/11/11 02:36:00;;;;;;;25.23;17.02;;;8.50;99.90;;;8.76;78.09;98942.16;5096413;28;20093;-82
2023/11/11 02:38:28;;;;;;;27.23;15.95;;;8.50;99.90;;;8.74;78.10;98941.59;5096176;28;20048;-82
2023/11/11 02:40:57;;;;;;;25.42;16.77;;;8.50;99.90;;;8.75;78.23;98948.53;5090768;28;20040;-82
2023/11/11 02:43:25;;;;;;;23.27;16.38;;;8.50;99.90;;;8.65;78.28;98941.16;5065418;28;20127;-82
2023/11/11 02:45:52;;;;;;;24.08;15.50;;;8.40;99.90;;;8.61;78.56;98947.97;5084776;28;20047;-82
2023/11/11 02:48:20;;;;;;;27.02;16.33;;;8.30;99.90;;;8.64;78.40;98944.06;5097403;28;20043;-83
2023/11/11 02:50:47;;;;;;;24.45;15.40;;;8.40;99.90;;;8.59;78.92;98947.41;5096201;28;20040;-82
2023/11/11 02:53:14;;;;;;;24.63;15.82;;;8.30;99.90;;;8.63;78.53;98959.16;5096917;28;20040;-82
2023/11/11 02:55:42;;;;;;;24.88;15.32;;;8.40;99.90;;;8.65;78.26;98967.72;5084386;28;20044;-83
2023/11/11 02:58:11;;;;;;;24.52;15.10;;;8.40;99.90;;;8.66;78.15;98964.03;5080234;28;20051;-82
2023/11/11 03:00:40;;;;;;;22.17;14.82;;;8.40;99.90;;;8.68;78.05;98959.25;5096378;28;20039;-82
2023/11/11 03:03:08;;;;;;;23.27;14.50;;;8.40;99.90;;;8.71;78.09;98965.97;5094642;28;20135;-82
2023/11/11 03:05:35;;;;;;;26.30;15.57;;;8.40;99.90;;;8.68;77.15;98958.47;5102280;28;20044;-82
2023/11/11 03:08:03;;;;;;;22.38;15.40;;;8.30;99.90;;;8.69;77.63;98968.06;5090836;28;20060;-82
2023/11/11 03:10:30;;;;;;;20.50;14.02;;;8.40;99.90;;;8.66;77.35;98969.34;5098675;28;20069;-82
2023/11/11 03:12:58;;;;;;;21.30;13.70;;;8.30;99.90;;;8.64;77.46;98971.44;5086229;28;20075;-82
2023/11/11 03:15:27;;;;;;;24.13;14.68;;;8.30;99.90;;;8.64;77.18;98976.75;5102851;28;20040;-82
2023/11/11 03:17:55;;;;;;;23.67;14.52;;;8.30;99.90;;;8.64;77.11;98971.44;5067818;28;20044;-82
2023/11/11 03:20:22;;;;;;;24.40;14.00;;;8.30;99.90;;;8.63;77.04;98969.78;5105435;28;20051;-82
2023/11/11 03:22:50;;;;;;;21.40;14.05;;;8.30;99.90;;;8.54;77.40;98978.38;5080116;28;20535;-82
2023/11/11 03:25:19;;;;;;;23.75;15.18;;;8.30;99.90;;;8.55;76.98;98991.44;5104343;28;20561;-82
2023/11/11 03:27:47;;;;;;;21.70;14.52;;;8.30;99.90;;;8.53;77.18;98990.84;5103840;28;20533;-82
2023/11/11 03:30:17;;;;;;;24.85;15.55;;;8.30;99.90;;;8.50;77.07;98999.31;5083390;28;20112;-82
2023/11/11 03:32:46;;;;;;;20.45;14.85;;;8.20;99.90;;;8.49;77.26;98997.66;5085207;28;20044;-82
2023/11/11 03:35:13;;;;;;;20.83;14.20;;;8.20;99.90;;;8.51;77.04;98995.59;5099083;28;20070;-82
2023/11/11 03:37:40;;;;;;;23.15;14.10;;;8.20;99.90;;;8.49;77.30;99000.31;5103216;28;20060;-82
2023/11/11 03:40:10;;;;;;;25.65;14.98;;;8.20;99.90;;;8.45;77.44;98999.19;5089840;28;20044;-82
2023/11/11 03:42:38;;;;;;;23.10;13.70;;;8.20;99.90;;;8.47;77.38;99018.34;5099471;28;20066;-82
2023/11/11 03:45:09;;;;;;;20.77;13.40;;;8.20;99.90;;;8.46;77.39;99019.41;5104304;28;20044;-82
2023/11/11 03:47:40;;;;;;;27.63;14.07;;;8.20;99.90;;;8.38;77.73;99020.56;5092084;28;20071;-82
2023/11/11 03:50:10;;;;;;;23.13;14.05;;;8.10;99.90;;;8.30;78.22;99025.41;5104037;28;20518;-82
2023/11/11 03:52:38;;;;;;;31.75;15.50;;;8.10;99.90;;;8.32;78.57;99026.78;5086986;28;20044;-82
2023/11/11 03:55:07;;;;;;;23.75;13.65;;;8.20;99.90;;;8.23;79.22;99028.97;5102087;28;20066;-82
2023/11/11 03:57:35;;;;;;;23.42;15.18;;;8.10;99.90;;;8.26;79.23;99033.03;5105373;28;20062;-82
2023/11/11 04:00:06;;;;;;;26.17;15.80;;;8.00;99.90;;;8.27;79.63;99034.63;5102636;28;20050;-82
2023/11/11 04:02:40;;;;;;;27.25;16.10;;;8.10;99.90;;;8.31;79.71;99029.66;5102478;28;20044;-82
2023/11/11 04:05:11;;;;;;;23.05;14.95;;;8.10;99.90;;;8.31;79.67;99035.00;5089001;28;20056;-82
2023/11/11 04:07:39;;;;;;;30.05;15.23;;;8.10;99.90;;;8.36;79.12;99038.59;5097739;28;20048;-83
2023/11/11 04:10:08;;;;;;;23.48;14.60;;;8.10;99.90;;;8.40;78.68;99038.94;5101647;28;20070;-82
2023/11/11 04:12:36;;;;;;;22.58;13.77;;;8.20;99.90;;;8.42;78.45;99042.97;5102261;28;20569;-82
2023/11/11 04:15:04;;;;;;;23.33;13.55;;;8.20;99.90;;;8.31;78.35;99051.72;5103831;28;20043;-82
2023/11/11 04:17:32;;;;;;;25.70;14.25;;;8.10;99.90;;;8.36;78.72;99051.88;5107865;28;20525;-82
2023/11/11 04:19:59;;;;;;;25.27;13.00;;;8.10;99.90;;;8.40;78.43;99060.19;5108395;28;20052;-82
2023/11/11 04:22:28;;;;;;;24.80;12.98;;;8.10;99.90;;;8.40;78.15;99060.19;5107242;28;20044;-82
2023/11/11 04:24:56;;;;;;;21.83;12.70;;;8.10;99.90;;;8.34;78.75;99069.03;5093808;28;20536;-82
2023/11/11 04:27:23;;;;;;;23.92;12.65;;;8.10;99.90;;;8.34;79.10;99069.03;5050140;28;20067;-82
2023/11/11 04:29:51;;;;;;;21.13;12.60;;;8.10;99.90;;;8.31;78.97;99067.66;5107430;28;20048;-82
2023/11/11 04:32:19;;;;;;;21.10;11.05;;;8.10;99.90;;;8.30;78.53;99071.38;5095455;28;20062;-82
2023/11/11 04:34:49;;;;;;;22.83;12.40;;;8.10;99.90;;;8.26;78.98;99084.28;5106543;28;20040;-82
2023/11/11 04:37:17;;;;;;;23.10;11.45;;;8.00;99.90;;;8.24;79.36;99082.88;5106635;28;20040;-82
2023/11/11 04:39:46;;;;;;;20.30;10.50;;;8.10;99.90;;;8.28;79.26;99089.38;5108077;28;20092;-82
2023/11/11 04:42:15;;;;;;;19.38;10.57;;;8.10;99.90;;;8.33;79.31;99086.03;5106471;28;20032;-82
2023/11/11 04:44:43;;;;;;;21.05;10.70;;;8.00;99.90;;;8.36;79.28;99098.84;5106625;28;20078;-82
2023/11/11 04:47:12;;;;;;;16.92;10.23;;;8.10;99.90;;;8.37;79.24;99109.28;5099606;28;20048;-82
2023/11/11 04:49:40;;;;;;;15.45;9.07;;;8.10;99.90;;;8.32;79.25;99108.31;5061161;28;20047;-82
2023/11/11 04:52:07;;;;;;;16.58;9.65;;;8.10;99.90;;;8.30;79.74;99105.91;5102788;28;20055;-82
2023/11/11 04:54:34;;;;;;;13.05;8.38;;;8.00;99.90;;;8.22;79.57;99109.69;5089454;28;20040;-82
2023/11/11 04:57:03;;;;;;;13.35;8.45;;;8.00;99.90;;;8.23;80.00;99113.16;5105424;28;20491;-82
2023/11/11 04:59:31;;;;;;;15.05;8.55;;;8.00;99.90;;;8.30;79.94;99121.03;5088320;28;20047;-82
2023/11/11 05:01:59;;;;;;;13.07;8.07;;;8.10;99.90;;;8.32;79.54;99116.28;5104950;28;20116;-82
2023/11/11 05:04:27;;;;;;;15.32;7.82;;;8.10;99.90;;;8.29;79.82;99132.66;5097260;28;20047;-82
2023/11/11 05:06:54;;;;;;;14.90;8.27;;;8.00;99.90;;;8.26;79.79;99139.25;5098303;28;20040;-82
2023/11/11 05:09:22;;;;;;;14.88;7.40;;;8.10;99.90;;;8.25;80.14;99145.63;5092895;28;20142;-82
2023/11/11 05:11:50;;;;;;;13.38;6.90;;;8.10;99.90;;;8.27;80.02;99140.88;5102562;28;20044;-82
2023/11/11 05:14:19;;;;;;;14.18;7.03;;;8.00;99.90;;;8.21;80.31;99142.59;5101136;28;20102;-82
2023/11/11 05:16:50;;;;;;;12.27;6.95;;;8.00;99.90;;;8.28;80.42;99142.47;5092467;28;20053;-82
2023/11/11 05:19:18;;;;;;;11.70;6.47;;;8.00;99.90;;;8.31;80.14;99154.50;5106343;28;20036;-82
2023/11/11 05:21:46;;;;;;;11.27;6.07;;;8.10;99.90;;;8.33;80.17;99152.44;5093122;28;20091;-82
2023/11/11 05:24:14;;;;;;;13.88;5.63;;;8.10;99.90;;;8.34;80.01;99157.50;5096760;28;20052;-82
2023/11/11 05:26:43;;;;;;;19.30;5.63;;;8.10;99.90;;;8.36;79.83;99157.28;5093419;28;20070;-82
2023/11/11 05:29:11;;;;;;;13.48;5.82;;;8.10;99.90;;;8.38;79.73;99164.00;5104183;28;20055;-82
2023/11/11 05:31:40;;;;;;;10.63;5.03;;;8.10;99.90;;;8.30;79.40;99168.84;5103830;28;20388;-82
2023/11/11 05:34:07;;;;;;;16.67;5.57;;;8.10;99.90;;;8.29;79.50;99170.66;5103174;28;20044;-82
2023/11/11 05:36:35;;;;;;;8.48;4.20;;;8.00;99.90;;;8.30;79.75;99166.19;5095469;28;20070;-82
2023/11/11 05:39:04;;;;;;;9.45;4.00;;;8.10;99.90;;;8.30;79.54;99171.50;5069587;28;20067;-82
2023/11/11 05:41:32;;;;;;;7.15;4.10;;;8.00;99.90;;;8.25;79.33;99172.97;5083411;28;20596;-82
2023/11/11 05:43:59;;;;;;;9.07;3.53;;;8.00;99.90;;;8.22;79.19;99176.09;5102272;28;20055;-82
2023/11/11 05:46:27;;;;;;;8.43;3.67;;;8.10;99.90;;;8.26;79.20;99171.94;5098324;28;20412;-82
2023/11/11 05:48:56;;;;;;;9.18;3.33;;;8.00;99.90;;;8.34;79.07;99181.41;5101464;28;20093;-82
2023/11/11 05:51:25;;;;;;;8.15;3.42;;;8.10;99.90;;;8.38;78.84;99179.13;5104774;28;20044;-83
2023/11/11 05:53:53;;;;;;;8.18;3.50;;;8.10;99.90;;;8.38;78.29;99184.44;5119917;28;20093;-82
2023/11/11 05:56:21;;;;;;;9.77;3.55;;;8.10;99.90;;;8.35;78.68;99193.69;5086273;28;20393;-82
2023/11/11 05:58:51;;;;;;;10.98;3.25;;;8.10;99.90;;;8.38;78.70;99195.88;5100176;28;20067;-82
2023/11/11 06:01:19;;;;;;;9.05;2.60;;;8.10;99.90;;;8.39;78.32;99204.66;5104617;28;20055;-82
2023/11/11 06:03:47;;;;;;;8.30;2.60;;;8.10;99.90;;;8.42;78.35;99212.19;5113483;28;20563;-82
2023/11/11 06:06:17;;;;;;;7.60;2.83;;;8.10;99.90;;;8.47;78.29;99207.00;5086139;28;20060;-82
2023/11/11 06:08:45;;;;;;;7.43;2.38;;;8.20;99.90;;;8.50;78.26;99214.53;5095234;28;20415;-82
2023/11/11 06:11:12;;;;;;;9.07;2.90;;;8.20;99.90;;;8.45;77.83;99217.88;5101300;28;20507;-82
2023/11/11 06:13:40;;;;;;;7.22;2.35;;;8.20;99.90;;;8.44;78.04;99210.09;5094460;28;20052;-82
2023/11/11 06:16:09;;;;;;;6.47;2.40;;;8.20;99.90;;;8.47;78.03;99217.63;5095616;28;20093;-82
2023/11/11 06:18:37;;;;;;;4.32;1.60;;;8.20;99.90;;;8.48;78.00;99220.03;5101646;28;20152;-82
2023/11/11 06:21:08;;;;;;;5.35;1.90;;;8.20;99.90;;;8.49;77.83;99218.19;5096548;28;20067;-82
2023/11/11 06:23:37;;;;;;;5.00;1.60;;;8.20;99.90;;;8.43;77.53;99229.75;5087972;28;20583;-82
2023/11/11 06:26:07;;;;;;;5.60;1.67;;;8.20;99.90;;;8.39;77.80;99232.03;5084494;28;20052;-82
2023/11/11 06:28:34;;;;;;;4.03;1.67;;;8.10;99.90;;;8.42;78.05;99225.47;5084723;28;20048;-82
2023/11/11 06:31:02;;;;;;;4.47;1.63;;;8.20;99.90;;;8.47;77.99;99225.59;5085319;28;20056;-83
2023/11/11 06:33:29;;;;;;;6.30;1.40;;;8.20;99.90;;;8.46;77.80;99224.78;5082082;28;20055;-82
2023/11/11 06:35:59;;;;;;;5.38;1.50;;;8.20;99.90;;;8.49;78.07;99231.47;5064910;28;20431;-85
2023/11/11 06:38:28;;;;;;;6.65;1.45;;;8.20;99.90;;;8.47;77.98;99237.03;5096494;28;20052;-82
2023/11/11 06:40:57;;;;;;;7.40;1.67;;;8.20;99.90;;;8.49;78.05;99231.47;5104786;28;20044;-83
2023/11/11 06:43:25;;;;;;;7.75;1.52;;;8.20;99.90;;;8.52;77.99;99236.34;5101056;28;20491;-82
2023/11/11 06:45:52;;;;;;;5.30;1.67;;;8.20;99.90;;;8.54;77.96;99234.28;5094233;28;20041;-82
2023/11/11 06:48:21;;;;;;;4.95;1.60;;;8.20;99.90;;;8.55;78.08;99237.75;5082927;28;20450;-82
2023/11/11 06:50:48;;;;;;;5.68;1.52;;;8.20;99.90;;;8.57;77.96;99236.47;5105301;28;20527;-83
2023/11/11 06:53:15;;;;;;;7.53;2.60;;;8.30;99.90;;;8.55;77.76;99241.22;5119831;28;20073;-84
2023/11/11 06:55:45;;;;;;;9.05;3.17;;;8.30;99.90;;;8.56;77.75;99239.38;5097981;28;20036;-82
2023/11/11 06:58:15;;;;;;;10.00;4.35;;;8.30;99.90;;;8.51;77.98;99248.84;5103340;28;20040;-84
2023/11/11 07:00:44;;;;;;;12.15;5.63;;;8.20;99.90;;;8.48;78.51;99249.28;5103449;28;20533;-83
2023/11/11 07:03:12;;;;;;;11.95;5.78;;;8.20;99.90;;;8.49;78.64;99255.41;5089648;28;20586;-83
2023/11/11 07:05:39;;;;;;;13.90;7.70;;;8.20;99.90;;;8.48;78.55;99262.56;5084787;28;20048;-83
2023/11/11 07:08:08;;;;;;;14.02;7.72;;;8.20;99.90;;;8.42;79.06;99267.97;5099639;28;20048;-84
2023/11/11 07:10:37;;;;;;;15.02;8.38;;;8.20;99.90;;;8.39;79.11;99266.56;5101248;28;20079;-84
2023/11/11 07:13:06;;;;;;;14.30;8.57;;;8.10;99.90;;;8.38;79.57;99277.44;5098521;28;20040;-84
2023/11/11 07:15:36;;;;;;;18.23;10.05;;;8.10;99.90;;;8.32;79.30;99275.66;5097584;28;20048;-84
2023/11/11 07:18:07;;;;;;;15.15;9.45;;;8.10;99.90;;;8.21;79.64;99275.38;5099173;28;20396;-84
2023/11/11 07:20:34;;;;;;;16.50;10.13;;;8.10;99.90;;;8.24;80.16;99280.22;5109544;28;20494;-82
2023/11/11 07:23:02;;;;;;;15.93;9.43;;;8.10;99.90;;;8.27;80.35;99279.78;5103159;28;20044;-82
2023/11/11 07:25:31;;;;;;;21.42;9.60;;;8.10;99.90;;;8.33;80.17;99287.91;5103851;28;20048;-82
2023/11/11 07:27:59;;;;;;;17.60;9.77;;;8.10;99.90;;;8.26;80.09;99286.16;5070344;28;20081;-82
2023/11/11 07:30:26;;;;;;;18.45;9.50;;;8.10;99.90;;;8.31;80.27;99288.13;5098009;28;20094;-83
2023/11/11 07:32:57;;;;;;;18.58;9.75;;;8.10;99.90;;;8.31;80.34;99296.09;5104113;28;20469;-83
2023/11/11 07:35:24;;;;;;;20.27;10.35;;;8.20;99.90;;;8.36;80.11;99293.59;5104904;28;20419;-82
2023/11/11 07:37:52;;;;;;;22.55;10.07;;;8.20;99.90;;;8.42;79.88;99297.22;5104402;28;20056;-82
2023/11/11 07:40:20;;;;;;;18.60;10.05;;;8.20;99.90;;;8.43;79.67;99290.84;5105315;28;20044;-82
2023/11/11 07:42:49;;;;;;;16.90;9.57;;;8.30;99.90;;;8.45;79.79;99299.41;5106151;28;20047;-83
2023/11/11 07:45:23;;;;;;;18.35;10.55;;;8.30;99.90;;;8.46;79.92;99298.38;5096372;28;20095;-82
2023/11/11 07:47:50;;;;;;;16.98;9.82;;;8.30;99.90;;;8.43;79.79;99298.81;5062423;28;20044;-82
2023/11/11 07:50:21;;;;;;;21.65;10.45;;;8.30;99.90;;;8.45;79.72;99305.53;5106838;28;20491;-82
2023/11/11 07:52:49;;;;;;;17.43;10.43;;;8.50;99.90;;;8.46;79.72;99314.31;5110075;28;20059;-82
2023/11/11 07:55:17;;;;;;;18.70;11.25;;;8.30;99.90;;;8.46;79.96;99309.81;5108889;28;20044;-83
2023/11/11 07:57:46;;;;;;;22.45;11.35;;;8.30;99.90;;;8.44;79.92;99311.06;5108669;28;20044;-82
2023/11/11 08:00:17;;;;;;;20.67;9.65;;;8.30;99.90;;;8.36;79.88;99320.16;5108401;28;20094;-82
2023/11/11 08:02:44;;;;;;;19.98;10.50;;;8.20;99.90;;;8.31;80.04;99319.19;5125836;28;20063;-82
2023/11/11 08:05:12;;;;;;;24.17;10.45;;;8.20;99.90;;;8.24;80.03;99317.41;5110202;28;20059;-82
2023/11/11 08:07:41;;;;;;;20.13;10.25;;;8.20;99.90;;;8.30;80.40;99323.69;5080499;28;20059;-83
2023/11/11 08:10:11;;;;;;;20.50;10.60;;;8.20;99.90;;;8.38;79.95;99326.06;5079917;28;20075;-83
2023/11/11 08:12:38;;;;;;;22.00;10.70;;;8.20;99.90;;;8.33;80.29;99322.44;5091697;28;20040;-87
2023/11/11 08:15:10;;;;;;;19.92;9.98;;;8.20;99.90;;;8.35;80.52;99331.81;5100729;28;20028;-84
2023/11/11 08:17:38;;;;;;;20.35;10.05;;;8.20;99.90;;;8.40;80.38;99339.13;5103515;28;20486;-83
2023/11/11 08:20:11;;;;;;;17.38;10.27;;;8.20;99.90;;;8.39;80.31;99337.50;5102170;28;20466;-82
2023/11/11 08:22:40;;;;;;;19.10;10.07;;;8.30;99.90;;;8.29;79.89;99338.00;5107353;28;20040;-82
2023/11/11 08:25:11;;;;;;;21.75;10.35;;;8.20;99.90;;;8.26;80.46;99341.13;5104031;28;20052;-83
2023/11/11 08:27:39;;;;;;;21.27;11.10;;;8.20;99.90;;;8.32;80.50;99339.41;5103092;28;20036;-82
2023/11/11 08:30:10;;;;;;;20.17;10.45;;;8.20;99.90;;;8.39;80.53;99346.28;5071930;28;20494;-83
2023/11/11 08:32:38;;;;;;;19.98;11.30;;;8.30;99.90;;;8.43;80.34;99351.94;5089920;28;20054;-83
2023/11/11 08:35:11;;;;;;;21.20;10.32;;;8.30;99.90;;;8.39;80.12;99356.09;5083428;28;20403;-86
2023/11/11 08:37:39;;;;;;;26.30;10.98;;;8.30;99.90;;;8.42;80.24;99356.47;5110647;28;20411;-82
2023/11/11 08:40:10;;;;;;;16.95;10.43;;;8.30;99.90;;;8.47;79.98;99359.25;5110484;28;20048;-82
2023/11/11 08:42:39;;;;;;;20.92;10.23;;;8.30;99.90;;;8.50;79.69;99353.50;5108988;28;20052;-82
2023/11/11 08:45:08;;;;;;;18.80;10.65;;;8.40;99.90;;;8.57;79.82;99352.59;5092908;28;20044;-82
2023/11/11 08:47:36;;;;;;;21.75;11.13;;;8.40;99.90;;;8.59;79.96;99359.31;5108711;28;20040;-82
2023/11/11 08:50:05;;;;;;;19.10;11.27;;;8.50;99.90;;;8.54;80.06;99356.53;5109248;28;20073;-82
2023/11/11 08:52:34;;;;;;;21.40;10.40;;;8.40;99.90;;;8.60;80.29;99360.13;5108289;28;20048;-82
2023/11/11 08:55:04;;;;;;;22.75;11.38;;;8.50;99.90;;;8.60;80.04;99360.94;5110095;28;20063;-82
2023/11/11 08:57:31;;;;;;;22.17;11.40;;;8.50;99.90;;;8.61;80.17;99359.09;5108563;28;20083;-83
2023/11/11 08:59:59;;;;;;;23.42;12.75;;;8.40;99.90;;;8.50;80.05;99369.44;5111095;28;20043;-83
2023/11/11 09:02:26;;;;;;;24.98;11.35;;;8.40;99.90;;;8.46;79.70;99365.59;5108402;28;20040;-83
2023/11/11 09:04:57;;;;;;;21.50;10.95;;;8.40;99.90;;;8.46;80.08;99367.47;5094486;28;20048;-82
2023/11/11 09:07:25;;;;;;;17.43;10.83;;;8.40;99.90;;;8.48;79.96;99365.38;5106306;28;20048;-82
2023/11/11 09:09:53;;;;;;;22.98;10.93;;;8.40;99.90;;;8.40;79.61;99363.03;5093740;28;20047;-81
2023/11/11 09:12:23;;;;;;;21.85;11.52;;;8.40;99.90;;;8.47;80.00;99375.19;5095393;28;20036;-82
2023/11/11 09:14:50;;;;;;;22.65;12.15;;;8.40;99.90;;;8.48;79.97;99371.50;5089363;28;20045;-82
2023/11/11 09:17:19;;;;;;;20.38;11.18;;;8.40;99.90;;;8.57;80.38;99373.84;5089842;28;20507;-82
2023/11/11 09:19:47;;;;;;;31.58;11.27;;;8.50;99.90;;;8.61;80.54;99375.03;5105319;28;20134;-82
2023/11/11 09:22:14;;;;;;;21.55;12.07;;;8.50;99.90;;;8.42;79.68;99382.22;5097950;28;20045;-82
2023/11/11 09:24:43;;;;;;;18.23;12.32;;;8.50;99.90;;;8.42;80.71;99382.22;5091251;28;20048;-82
2023/11/11 09:27:10;;;;;;;22.38;11.75;;;8.40;99.90;;;8.51;80.92;99384.34;5095418;28;20045;-82
2023/11/11 09:29:39;;;;;;;21.38;12.98;;;8.40;99.90;;;8.46;80.33;99381.56;5109793;28;20048;-82
2023/11/11 09:32:08;;;;;;;24.58;13.52;;;8.40;99.90;;;8.55;80.74;99382.06;5110979;28;20054;-82
2023/11/11 09:34:35;;;;;;;24.45;12.95;;;8.50;99.90;;;8.53;80.67;99384.13;5108888;28;20043;-82
2023/11/11 09:37:03;;;;;;;22.48;13.18;;;8.40;99.90;;;8.57;80.35;99395.13;5109506;28;20045;-82
2023/11/11 09:39:30;;;;;;;21.42;13.50;;;8.60;99.90;;;8.55;80.57;99389.22;5107758;28;20048;-82
2023/11/11 09:41:58;;;;;;;25.90;13.02;;;8.50;99.90;;;8.62;80.11;99389.94;5103495;28;20044;-82
2023/11/11 09:44:26;;;;;;;19.63;12.63;;;8.50;99.90;;;8.65;80.36;99382.31;5099241;28;20108;-82
2023/11/11 09:46:58;;;;;;;20.63;13.23;;;8.60;99.90;;;8.68;80.40;99387.16;5111921;28;20048;-82
2023/11/11 09:49:27;;;;;;;23.83;13.23;;;8.60;99.90;;;8.74;80.23;99393.47;5093016;28;20044;-82
2023/11/11 09:51:57;;;;;;;26.10;13.48;;;8.70;99.90;;;8.73;80.06;99389.16;5111582;28;20521;-82
2023/11/11 09:54:25;;;;;;;21.98;12.52;;;8.70;99.90;;;8.66;79.96;99386.59;5111094;28;20048;-82
2023/11/11 09:56:56;;;;;;;26.20;12.95;;;8.70;99.90;;;8.60;80.23;99394.69;5110355;28;20559;-82
2023/11/11 09:59:24;;;;;;;20.92;12.88;;;8.60;99.90;;;8.54;80.05;99396.38;5101856;28;20075;-82
2023/11/11 10:01:52;;;;;;;22.33;12.82;;;8.60;99.90;;;8.56;79.95;99394.31;5086242;28;20067;-82
2023/11/11 10:04:21;;;;;;;22.92;13.02;;;8.60;99.90;;;8.60;79.76;99398.13;5085655;28;20041;-82
2023/11/11 10:06:52;;;;;;;21.05;12.02;;;8.60;99.90;;;8.54;79.66;99404.34;5085153;28;20044;-82
2023/11/11 10:09:20;;;;;;;21.48;12.05;;;8.50;99.90;;;8.54;80.29;99407.00;5091321;28;20088;-82
2023/11/11 10:11:50;;;;;;;21.02;12.43;;;8.50;99.90;;;8.61;80.02;99417.56;5083820;28;20060;-84
2023/11/11 10:14:21;;;;;;;19.17;11.57;;;8.60;99.90;;;8.64;80.11;99415.25;5084473;28;20095;-82
2023/11/11 10:16:52;;;;;;;25.63;12.23;;;8.60;99.90;;;8.57;79.58;99411.06;5093501;28;20048;-82
2023/11/11 10:19:22;;;;;;;23.83;12.45;;;8.50;99.90;;;8.50;79.95;99408.50;5088055;28;20044;-84
2023/11/11 10:21:51;;;;;;;21.73;12.48;;;8.50;99.90;;;8.46;80.24;99412.63;5091459;28;20036;-82
2023/11/11 10:24:18;;;;;;;22.23;11.88;;;8.50;99.90;;;8.57;80.83;99409.22;5092771;28;20047;-82
2023/11/11 10:26:46;;;;;;;20.98;12.25;;;8.50;99.90;;;8.55;80.25;99413.94;5092697;28;20036;-83